sensor_id;sensor_type;location;lat;lon;timestamp;temperature;humidity
1534;DHT22;760;48.822;9.304;2022-11-15T05:04:40;7.90;99.90
1534;DHT22;760;48.822;9.304;2022-11-15T05:07:05;7.90;99.90
1534;DHT22;760;48.822;9.304;2022-11-15T05:09:31;7.80;99.90
1534;DHT22;760;48.822;9.304;2022-11-15T05:11:57;7.80;99.90
1534;DHT22;760;48.822;9.304;2022-11-15T05:14:22;7.80;99.90
1534;DHT22;760;48.822;9.304;2022-11-15T05:16:48;7.80;99.90
1534;DHT22;760;48.822;9.304;2022-11-15T05:19:13;7.80;99.90
1534;DHT22;760;48.822;9.304;2022-11-15T05:21:39;7.80;99.90
1534;DHT22;760;48.822;9.304;2022-11-15T05:24:05;7.80;99.90
1534;DHT22;760;48.822;9.304;2022-11-15T05:26:31;7.90;99.90
1534;DHT22;760;48.822;9.304;2022-11-15T05:28:58;7.90;99.90
1534;DHT22;760;48.822;9.304;2022-11-15T05:31:25;7.90;99.90
1534;DHT22;760;48.822;9.304;2022-11-15T05:33:51;7.90;99.90
1534;DHT22;760;48.822;9.304;2022-11-15T05:38:47;7.90;99.90
1534;DHT22;760;48.822;9.304;2022-11-15T05:41:14;7.90;99.90
1534;DHT22;760;48.822;9.304;2022-11-15T05:43:41;7.80;99.90
1534;DHT22;760;48.822;9.304;2022-11-15T05:46:07;7.80;99.90
1534;DHT22;760;48.822;9.304;2022-11-15T05:48:34;7.70;99.90
1534;DHT22;760;48.822;9.304;2022-11-15T05:51:02;7.70;99.90
1534;DHT22;760;48.822;9.304;2022-11-15T05:53:29;7.70;99.90
1534;DHT22;760;48.822;9.304;2022-11-15T05:55:55;7.60;99.90
1534;DHT22;760;48.822;9.304;2022-11-15T05:58:21;7.60;99.90
1534;DHT22;760;48.822;9.304;2022-11-15T06:00:47;7.60;99.90
1534;DHT22;760;48.822;9.304;2022-11-15T06:03:13;7.60;99.90
1534;DHT22;760;48.822;9.304;2022-11-15T06:05:39;7.60;99.90
1534;DHT22;760;48.822;9.304;2022-11-15T06:08:05;7.60;99.90
1534;DHT22;760;48.822;9.304;2022-11-15T06:10:31;7.50;99.90
1534;DHT22;760;48.822;9.304;2022-11-15T06:13:02;7.60;99.90
1534;DHT22;760;48.822;9.304;2022-11-15T06:15:28;7.60;99.90
1534;DHT22;760;48.822;9.304;2022-11-15T06:17:56;7.60;99.90
1534;DHT22;760;48.822;9.304;2022-11-15T06:20:24;7.60;99.90
1534;DHT22;760;48.822;9.304;2022-11-15T06:22:49;7.70;99.90
1534;DHT22;760;48.822;9.304;2022-11-15T06:25:15;7.70;99.90
1534;DHT22;760;48.822;9.304;2022-11-15T06:27:42;7.70;99.90
1534;DHT22;760;48.822;9.304;2022-11-15T06:30:07;7.70;99.90
1534;DHT22;760;48.822;9.304;2022-11-15T06:32:33;7.70;99.90
1534;DHT22;760;48.822;9.304;2022-11-15T06:34:59;7.70;99.90
1534;DHT22;760;48.822;9.304;2022-11-15T06:37:24;7.70;99.90
1534;DHT22;760;48.822;9.304;2022-11-15T06:39:50;7.80;99.90
1534;DHT22;760;48.822;9.304;2022-11-15T06:42:15;7.70;99.90
1534;DHT22;760;48.822;9.304;2022-11-15T06:44:41;7.70;99.90
1534;DHT22;760;48.822;9.304;2022-11-15T06:47:07;7.70;99.90
1534;DHT22;760;48.822;9.304;2022-11-15T06:49:32;7.80;99.90
1534;DHT22;760;48.822;9.304;2022-11-15T06:51:58;7.80;99.90
1534;DHT22;760;48.822;9.304;2022-11-15T06:54:23;7.80;99.90
1534;DHT22;760;48.822;9.304;2022-11-15T06:56:49;7.80;99.90
1534;DHT22;760;48.822;9.304;2022-11-15T06:59:14;7.90;99.90
1534;DHT22;760;48.822;9.304;2022-11-15T07:01:40;7.90;99.90
1534;DHT22;760;48.822;9.304;2022-11-15T07:04:05;8.00;99.90
1534;DHT22;760;48.822;9.304;2022-11-15T07:06:31;8.10;99.90
1534;DHT22;760;48.822;9.304;2022-11-15T07:08:56;8.10;99.90
1534;DHT22;760;48.822;9.304;2022-11-15T07:11:22;8.20;99.90
1534;DHT22;760;48.822;9.304;2022-11-15T07:13:48;8.30;99.90
1534;DHT22;760;48.822;9.304;2022-11-15T07:16:13;8.40;99.90
1534;DHT22;760;48.822;9.304;2022-11-15T07:18:40;8.60;99.90
1534;DHT22;760;48.822;9.304;2022-11-15T07:21:10;8.80;99.90
1534;DHT22;760;48.822;9.304;2022-11-15T07:23:37;9.10;99.90
1534;DHT22;760;48.822;9.304;2022-11-15T07:26:07;9.30;99.90
1534;DHT22;760;48.822;9.304;2022-11-15T07:28:33;9.60;99.90
1534;DHT22;760;48.822;9.304;2022-11-15T07:31:02;9.80;99.90
1534;DHT22;760;48.822;9.304;2022-11-15T07:33:28;10.00;99.90
1534;DHT22;760;48.822;9.304;2022-11-15T07:35:54;10.10;99.90
1534;DHT22;760;48.822;9.304;2022-11-15T07:38:19;10.20;99.90
1534;DHT22;760;48.822;9.304;2022-11-15T07:40:45;10.30;99.90
1534;DHT22;760;48.822;9.304;2022-11-15T07:43:11;10.40;99.90
1534;DHT22;760;48.822;9.304;2022-11-15T07:45:44;10.60;99.90
1534;DHT22;760;48.822;9.304;2022-11-15T07:48:10;10.70;99.90
1534;DHT22;760;48.822;9.304;2022-11-15T07:50:36;10.80;99.90
1534;DHT22;760;48.822;9.304;2022-11-15T07:53:01;11.00;99.90
1534;DHT22;760;48.822;9.304;2022-11-15T07:55:27;11.20;99.90
1534;DHT22;760;48.822;9.304;2022-11-15T07:58:07;11.50;99.90
1534;DHT22;760;48.822;9.304;2022-11-15T08:00:34;11.80;99.90
1534;DHT22;760;48.822;9.304;2022-11-15T08:05:34;12.60;99.90
1534;DHT22;760;48.822;9.304;2022-11-15T08:07:59;13.40;99.90
1534;DHT22;760;48.822;9.304;2022-11-15T08:10:26;14.00;99.90
1534;DHT22;760;48.822;9.304;2022-11-15T08:13:03;14.50;99.90
1534;DHT22;760;48.822;9.304;2022-11-15T08:15:30;14.70;99.90
1534;DHT22;760;48.822;9.304;2022-11-15T08:17:57;14.90;99.90
1534;DHT22;760;48.822;9.304;2022-11-15T08:20:23;15.10;99.90
1534;DHT22;760;48.822;9.304;2022-11-15T08:22:49;15.20;99.90
1534;DHT22;760;48.822;9.304;2022-11-15T08:25:15;15.20;99.90
1534;DHT22;760;48.822;9.304;2022-11-15T08:27:41;15.20;99.90
1534;DHT22;760;48.822;9.304;2022-11-15T08:30:06;15.10;99.90
1534;DHT22;760;48.822;9.304;2022-11-15T08:32:32;15.10;99.90
1534;DHT22;760;48.822;9.304;2022-11-15T08:34:58;15.20;99.90
1534;DHT22;760;48.822;9.304;2022-11-15T08:37:23;15.40;99.90
1534;DHT22;760;48.822;9.304;2022-11-15T08:39:49;15.30;99.90
1534;DHT22;760;48.822;9.304;2022-11-15T08:42:15;15.20;99.90
1534;DHT22;760;48.822;9.304;2022-11-15T08:44:41;15.10;99.90
1534;DHT22;760;48.822;9.304;2022-11-15T08:47:08;15.00;99.90
1534;DHT22;760;48.822;9.304;2022-11-15T08:49:36;15.10;99.90
1534;DHT22;760;48.822;9.304;2022-11-15T08:52:01;15.40;99.90
1534;DHT22;760;48.822;9.304;2022-11-15T08:54:27;16.00;99.90
1534;DHT22;760;48.822;9.304;2022-11-15T08:56:52;16.50;99.90
1534;DHT22;760;48.822;9.304;2022-11-15T08:59:18;17.10;99.90
1534;DHT22;760;48.822;9.304;2022-11-15T09:01:43;17.70;99.90
1534;DHT22;760;48.822;9.304;2022-11-15T09:04:09;18.50;99.90
1534;DHT22;760;48.822;9.304;2022-11-15T09:06:34;19.10;99.20
1534;DHT22;760;48.822;9.304;2022-11-15T09:09:01;19.50;99.10
1534;DHT22;760;48.822;9.304;2022-11-15T09:11:26;20.00;97.70
1534;DHT22;760;48.822;9.304;2022-11-15T09:13:52;20.30;96.40
1534;DHT22;760;48.822;9.304;2022-11-15T09:16:18;20.70;95.40
1534;DHT22;760;48.822;9.304;2022-11-15T09:18:44;21.00;94.20
1534;DHT22;760;48.822;9.304;2022-11-15T09:21:09;21.10;93.90
1534;DHT22;760;48.822;9.304;2022-11-15T09:23:35;21.30;93.90
1534;DHT22;760;48.822;9.304;2022-11-15T09:26:02;21.40;92.70
1534;DHT22;760;48.822;9.304;2022-11-15T09:28:28;21.50;93.00
1534;DHT22;760;48.822;9.304;2022-11-15T09:30:58;21.50;91.80
1534;DHT22;760;48.822;9.304;2022-11-15T09:33:25;21.10;91.60
1534;DHT22;760;48.822;9.304;2022-11-15T09:35:51;20.80;91.90
1534;DHT22;760;48.822;9.304;2022-11-15T09:38:17;20.60;92.50
1534;DHT22;760;48.822;9.304;2022-11-15T09:40:43;20.40;92.60
1534;DHT22;760;48.822;9.304;2022-11-15T09:43:30;20.10;92.70
1534;DHT22;760;48.822;9.304;2022-11-15T09:46:32;19.80;93.20
1534;DHT22;760;48.822;9.304;2022-11-15T09:56:36;20.90;92.90
1534;DHT22;760;48.822;9.304;2022-11-15T10:04:38;21.60;90.90
1534;DHT22;760;48.822;9.304;2022-11-15T10:07:35;21.80;90.90
1534;DHT22;760;48.822;9.304;2022-11-15T10:10:23;22.00;90.30
1534;DHT22;760;48.822;9.304;2022-11-15T10:12:51;22.00;89.80
1534;DHT22;760;48.822;9.304;2022-11-15T10:15:18;21.70;87.80
1534;DHT22;760;48.822;9.304;2022-11-15T10:20:25;21.00;90.30
1534;DHT22;760;48.822;9.304;2022-11-15T10:22:54;20.60;90.60
1534;DHT22;760;48.822;9.304;2022-11-15T10:25:32;20.10;91.20
1534;DHT22;760;48.822;9.304;2022-11-15T10:28:26;19.60;91.90
1534;DHT22;760;48.822;9.304;2022-11-15T10:30:55;19.10;92.40
1534;DHT22;760;48.822;9.304;2022-11-15T10:33:36;18.70;92.40
1534;DHT22;760;48.822;9.304;2022-11-15T10:36:22;18.60;92.80
1534;DHT22;760;48.822;9.304;2022-11-15T10:43:45;18.00;94.10
1534;DHT22;760;48.822;9.304;2022-11-15T10:46:26;17.90;94.50
1534;DHT22;760;48.822;9.304;2022-11-15T10:48:52;17.80;94.70
1534;DHT22;760;48.822;9.304;2022-11-15T10:51:27;17.80;94.90
1534;DHT22;760;48.822;9.304;2022-11-15T10:53:57;17.80;94.80
1534;DHT22;760;48.822;9.304;2022-11-15T10:56:26;17.80;95.00
1534;DHT22;760;48.822;9.304;2022-11-15T10:58:56;17.70;95.10
1534;DHT22;760;48.822;9.304;2022-11-15T11:01:27;17.60;95.30
1534;DHT22;760;48.822;9.304;2022-11-15T11:04:08;17.50;95.40
1534;DHT22;760;48.822;9.304;2022-11-15T11:11:57;17.60;96.30
1534;DHT22;760;48.822;9.304;2022-11-15T11:14:29;17.50;97.00
1534;DHT22;760;48.822;9.304;2022-11-15T11:17:28;17.30;96.70
1534;DHT22;760;48.822;9.304;2022-11-15T11:26:46;17.10;96.80
1534;DHT22;760;48.822;9.304;2022-11-15T11:29:49;17.10;97.30
1534;DHT22;760;48.822;9.304;2022-11-15T11:32:40;17.00;97.00
1534;DHT22;760;48.822;9.304;2022-11-15T11:35:24;17.10;97.10
1534;DHT22;760;48.822;9.304;2022-11-15T11:43:37;17.00;97.40
1534;DHT22;760;48.822;9.304;2022-11-15T11:46:24;17.10;96.90
1534;DHT22;760;48.822;9.304;2022-11-15T11:49:09;17.10;97.30
1534;DHT22;760;48.822;9.304;2022-11-15T11:51:43;17.10;97.30
1534;DHT22;760;48.822;9.304;2022-11-15T11:54:14;17.10;97.20
1534;DHT22;760;48.822;9.304;2022-11-15T11:56:45;17.10;96.20
1534;DHT22;760;48.822;9.304;2022-11-15T11:59:23;17.10;96.40
1534;DHT22;760;48.822;9.304;2022-11-15T12:01:51;17.10;96.10
1534;DHT22;760;48.822;9.304;2022-11-15T12:04:27;17.10;96.10
1534;DHT22;760;48.822;9.304;2022-11-15T12:07:25;17.00;96.00
1534;DHT22;760;48.822;9.304;2022-11-15T12:12:58;16.80;96.60
1534;DHT22;760;48.822;9.304;2022-11-15T12:15:29;16.80;96.90
1534;DHT22;760;48.822;9.304;2022-11-15T12:17:57;16.70;96.70
1534;DHT22;760;48.822;9.304;2022-11-15T12:20:29;16.80;97.10
1534;DHT22;760;48.822;9.304;2022-11-15T12:25:52;17.00;96.80
1534;DHT22;760;48.822;9.304;2022-11-15T12:31:26;17.10;96.20
1534;DHT22;760;48.822;9.304;2022-11-15T12:33:57;17.10;96.10
1534;DHT22;760;48.822;9.304;2022-11-15T12:39:00;16.90;96.70
1534;DHT22;760;48.822;9.304;2022-11-15T12:43:51;16.80;96.60
1534;DHT22;760;48.822;9.304;2022-11-15T12:49:07;16.70;96.70
1534;DHT22;760;48.822;9.304;2022-11-15T12:57:51;16.50;96.70
1534;DHT22;760;48.822;9.304;2022-11-15T13:00:00;16.40;97.00
1534;DHT22;760;48.822;9.304;2022-11-15T13:17:40;16.20;98.10
1534;DHT22;760;48.822;9.304;2022-11-15T13:20:25;16.20;98.10
1534;DHT22;760;48.822;9.304;2022-11-15T13:23:02;16.20;98.00
1534;DHT22;760;48.822;9.304;2022-11-15T13:30:53;16.00;98.50
1534;DHT22;760;48.822;9.304;2022-11-15T13:33:31;15.90;98.70
1534;DHT22;760;48.822;9.304;2022-11-15T13:36:12;15.90;99.00
1534;DHT22;760;48.822;9.304;2022-11-15T13:38:42;15.90;98.80
1534;DHT22;760;48.822;9.304;2022-11-15T13:41:31;15.90;98.90
1534;DHT22;760;48.822;9.304;2022-11-15T13:43:59;15.90;98.90
1534;DHT22;760;48.822;9.304;2022-11-15T13:46:31;15.90;98.90
1534;DHT22;760;48.822;9.304;2022-11-15T13:49:02;15.90;98.10
1534;DHT22;760;48.822;9.304;2022-11-15T13:51:47;15.90;98.20
1534;DHT22;760;48.822;9.304;2022-11-15T13:54:25;15.80;98.20
1534;DHT22;760;48.822;9.304;2022-11-15T13:56:57;15.80;98.40
1534;DHT22;760;48.822;9.304;2022-11-15T13:59:35;15.70;98.50
1534;DHT22;760;48.822;9.304;2022-11-15T14:02:34;15.70;98.40
1534;DHT22;760;48.822;9.304;2022-11-15T14:05:17;15.60;98.40
1534;DHT22;760;48.822;9.304;2022-11-15T14:10:41;15.60;98.50
1534;DHT22;760;48.822;9.304;2022-11-15T14:13:26;15.50;98.00
1534;DHT22;760;48.822;9.304;2022-11-15T14:15:53;15.50;98.30
1534;DHT22;760;48.822;9.304;2022-11-15T14:18:41;15.40;98.30
1534;DHT22;760;48.822;9.304;2022-11-15T14:21:07;15.40;98.40
1534;DHT22;760;48.822;9.304;2022-11-15T14:23:33;15.40;98.30
1534;DHT22;760;48.822;9.304;2022-11-15T14:26:01;15.40;98.30
1534;DHT22;760;48.822;9.304;2022-11-15T14:30:55;15.20;98.90
1534;DHT22;760;48.822;9.304;2022-11-15T14:33:59;15.10;99.30
1534;DHT22;760;48.822;9.304;2022-11-15T14:36:19;15.10;99.50
1534;DHT22;760;48.822;9.304;2022-11-15T14:38:46;15.10;99.90
1534;DHT22;760;48.822;9.304;2022-11-15T14:41:23;14.90;99.90
1534;DHT22;760;48.822;9.304;2022-11-15T14:43:50;14.80;99.90
1534;DHT22;760;48.822;9.304;2022-11-15T14:46:16;14.60;99.90
1534;DHT22;760;48.822;9.304;2022-11-15T14:48:42;14.50;99.90
1534;DHT22;760;48.822;9.304;2022-11-15T14:51:17;14.40;99.90
1534;DHT22;760;48.822;9.304;2022-11-15T14:53:44;14.30;99.90
1534;DHT22;760;48.822;9.304;2022-11-15T14:56:11;14.20;99.90
1534;DHT22;760;48.822;9.304;2022-11-15T14:58:36;14.10;99.90
1534;DHT22;760;48.822;9.304;2022-11-15T15:01:27;14.00;99.90
1534;DHT22;760;48.822;9.304;2022-11-15T15:03:53;14.00;99.90
1534;DHT22;760;48.822;9.304;2022-11-15T15:06:22;14.00;99.90
1534;DHT22;760;48.822;9.304;2022-11-15T15:08:48;14.00;99.90
1534;DHT22;760;48.822;9.304;2022-11-15T15:11:29;13.90;99.90
1534;DHT22;760;48.822;9.304;2022-11-15T15:13:55;13.90;99.90
1534;DHT22;760;48.822;9.304;2022-11-15T15:16:24;14.00;99.90
1534;DHT22;760;48.822;9.304;2022-11-15T15:18:50;14.00;99.90
1534;DHT22;760;48.822;9.304;2022-11-15T15:21:24;14.00;99.90
1534;DHT22;760;48.822;9.304;2022-11-15T15:23:51;14.00;99.90
1534;DHT22;760;48.822;9.304;2022-11-15T15:26:19;14.00;99.90
1534;DHT22;760;48.822;9.304;2022-11-15T15:28:44;14.00;99.90
1534;DHT22;760;48.822;9.304;2022-11-15T15:31:10;14.00;99.90
1534;DHT22;760;48.822;9.304;2022-11-15T15:33:36;14.00;99.90
1534;DHT22;760;48.822;9.304;2022-11-15T15:36:02;13.90;99.90
1534;DHT22;760;48.822;9.304;2022-11-15T15:38:28;13.90;99.90
1534;DHT22;760;48.822;9.304;2022-11-15T15:40:54;13.90;99.90
1534;DHT22;760;48.822;9.304;2022-11-15T15:43:20;13.80;99.90
1534;DHT22;760;48.822;9.304;2022-11-15T15:45:46;13.70;99.90
1534;DHT22;760;48.822;9.304;2022-11-15T15:48:14;13.60;99.90
1534;DHT22;760;48.822;9.304;2022-11-15T15:50:40;13.50;99.90
1534;DHT22;760;48.822;9.304;2022-11-15T15:53:08;13.40;99.90
1534;DHT22;760;48.822;9.304;2022-11-15T15:55:36;13.30;99.90
1534;DHT22;760;48.822;9.304;2022-11-15T15:58:02;13.10;99.90
1534;DHT22;760;48.822;9.304;2022-11-15T16:00:28;13.00;99.90
1534;DHT22;760;48.822;9.304;2022-11-15T16:02:54;12.90;99.90
1534;DHT22;760;48.822;9.304;2022-11-15T16:05:20;12.90;99.90
1534;DHT22;760;48.822;9.304;2022-11-15T16:07:46;12.80;99.90
1534;DHT22;760;48.822;9.304;2022-11-15T16:10:22;12.80;99.90
1534;DHT22;760;48.822;9.304;2022-11-15T16:12:50;12.70;99.90
1534;DHT22;760;48.822;9.304;2022-11-15T16:15:16;12.70;99.90
1534;DHT22;760;48.822;9.304;2022-11-15T16:17:48;12.70;99.90
1534;DHT22;760;48.822;9.304;2022-11-15T16:20:33;12.60;99.90
1534;DHT22;760;48.822;9.304;2022-11-15T16:23:00;12.60;99.90
1534;DHT22;760;48.822;9.304;2022-11-15T16:25:26;12.60;99.90
1534;DHT22;760;48.822;9.304;2022-11-15T16:27:52;12.70;99.90
1534;DHT22;760;48.822;9.304;2022-11-15T16:30:20;12.70;99.90
1534;DHT22;760;48.822;9.304;2022-11-15T16:32:46;12.70;99.90
1534;DHT22;760;48.822;9.304;2022-11-15T16:35:12;12.80;99.90
1534;DHT22;760;48.822;9.304;2022-11-15T16:37:38;12.80;99.90
1534;DHT22;760;48.822;9.304;2022-11-15T16:40:23;12.80;99.90
1534;DHT22;760;48.822;9.304;2022-11-15T16:42:49;12.80;99.90
1534;DHT22;760;48.822;9.304;2022-11-15T16:45:15;12.90;99.90
1534;DHT22;760;48.822;9.304;2022-11-15T16:47:40;12.90;99.90
1534;DHT22;760;48.822;9.304;2022-11-15T16:50:29;12.90;99.90
1534;DHT22;760;48.822;9.304;2022-11-15T16:52:56;12.90;99.90
1534;DHT22;760;48.822;9.304;2022-11-15T16:55:27;13.00;99.90
1534;DHT22;760;48.822;9.304;2022-11-15T16:57:53;13.00;99.90
1534;DHT22;760;48.822;9.304;2022-11-15T17:00:20;13.00;99.90
1534;DHT22;760;48.822;9.304;2022-11-15T17:02:48;13.10;99.90
1534;DHT22;760;48.822;9.304;2022-11-15T17:05:16;13.10;99.90
1534;DHT22;760;48.822;9.304;2022-11-15T17:07:42;13.20;99.90
1534;DHT22;760;48.822;9.304;2022-11-15T17:10:10;13.30;99.90
1534;DHT22;760;48.822;9.304;2022-11-15T17:12:36;13.30;99.90
1534;DHT22;760;48.822;9.304;2022-11-15T17:15:03;13.30;99.90
1534;DHT22;760;48.822;9.304;2022-11-15T17:17:30;13.40;99.90
1534;DHT22;760;48.822;9.304;2022-11-15T17:19:56;13.40;99.90
1534;DHT22;760;48.822;9.304;2022-11-15T17:22:22;13.40;99.90
1534;DHT22;760;48.822;9.304;2022-11-15T17:24:48;13.40;99.90
1534;DHT22;760;48.822;9.304;2022-11-15T17:27:14;13.40;99.90
1534;DHT22;760;48.822;9.304;2022-11-15T17:29:40;13.40;99.90
1534;DHT22;760;48.822;9.304;2022-11-15T17:32:06;13.30;99.90
1534;DHT22;760;48.822;9.304;2022-11-15T17:34:32;13.30;99.90
1534;DHT22;760;48.822;9.304;2022-11-15T17:36:58;13.30;99.90
1534;DHT22;760;48.822;9.304;2022-11-15T17:39:23;13.40;99.90
1534;DHT22;760;48.822;9.304;2022-11-15T17:41:49;13.40;99.90
1534;DHT22;760;48.822;9.304;2022-11-15T17:44:15;13.40;99.90
1534;DHT22;760;48.822;9.304;2022-11-15T17:46:40;13.30;99.90
1534;DHT22;760;48.822;9.304;2022-11-15T17:49:07;13.40;99.90
1534;DHT22;760;48.822;9.304;2022-11-15T17:51:32;13.40;99.90
1534;DHT22;760;48.822;9.304;2022-11-15T17:53:58;13.40;99.90
1534;DHT22;760;48.822;9.304;2022-11-15T17:56:26;13.40;99.90
1534;DHT22;760;48.822;9.304;2022-11-15T17:58:54;13.40;99.90
1534;DHT22;760;48.822;9.304;2022-11-15T18:01:31;13.30;99.90
1534;DHT22;760;48.822;9.304;2022-11-15T18:03:58;13.40;99.90
1534;DHT22;760;48.822;9.304;2022-11-15T18:06:26;13.40;99.90
1534;DHT22;760;48.822;9.304;2022-11-15T18:08:53;13.30;99.90
1534;DHT22;760;48.822;9.304;2022-11-15T18:11:27;13.30;99.90
1534;DHT22;760;48.822;9.304;2022-11-15T18:13:55;13.30;99.90
1534;DHT22;760;48.822;9.304;2022-11-15T18:16:23;13.30;99.90
1534;DHT22;760;48.822;9.304;2022-11-15T18:18:53;13.30;99.90
1534;DHT22;760;48.822;9.304;2022-11-15T18:21:21;13.30;99.90
1534;DHT22;760;48.822;9.304;2022-11-15T18:23:48;13.30;99.90
1534;DHT22;760;48.822;9.304;2022-11-15T18:26:15;13.30;99.90
1534;DHT22;760;48.822;9.304;2022-11-15T18:28:44;13.30;99.90
1534;DHT22;760;48.822;9.304;2022-11-15T18:31:18;13.30;99.90
1534;DHT22;760;48.822;9.304;2022-11-15T18:33:45;13.30;99.90
1534;DHT22;760;48.822;9.304;2022-11-15T18:36:14;13.20;99.90
1534;DHT22;760;48.822;9.304;2022-11-15T18:38:40;13.20;99.90
1534;DHT22;760;48.822;9.304;2022-11-15T18:41:15;13.20;99.90
1534;DHT22;760;48.822;9.304;2022-11-15T18:43:46;13.20;99.90
1534;DHT22;760;48.822;9.304;2022-11-15T18:46:16;13.20;99.90
1534;DHT22;760;48.822;9.304;2022-11-15T18:48:43;13.20;99.90
1534;DHT22;760;48.822;9.304;2022-11-15T18:51:11;13.20;99.90
1534;DHT22;760;48.822;9.304;2022-11-15T18:53:38;13.20;99.90
1534;DHT22;760;48.822;9.304;2022-11-15T18:56:06;13.20;99.90
1534;DHT22;760;48.822;9.304;2022-11-15T18:58:35;13.30;99.90
1534;DHT22;760;48.822;9.304;2022-11-15T19:01:06;13.30;99.90
1534;DHT22;760;48.822;9.304;2022-11-15T19:03:33;13.20;99.90
1534;DHT22;760;48.822;9.304;2022-11-15T19:06:07;13.10;99.90
1534;DHT22;760;48.822;9.304;2022-11-15T19:08:34;13.10;99.90
1534;DHT22;760;48.822;9.304;2022-11-15T19:11:03;13.00;99.90
1534;DHT22;760;48.822;9.304;2022-11-15T19:13:29;12.90;99.90
1534;DHT22;760;48.822;9.304;2022-11-15T19:15:59;12.80;99.90
1534;DHT22;760;48.822;9.304;2022-11-15T19:18:25;12.60;99.90
1534;DHT22;760;48.822;9.304;2022-11-15T19:20:52;12.60;99.90
1534;DHT22;760;48.822;9.304;2022-11-15T19:23:19;12.50;99.90
1534;DHT22;760;48.822;9.304;2022-11-15T19:25:55;12.50;99.90
1534;DHT22;760;48.822;9.304;2022-11-15T19:28:22;12.40;99.90
1534;DHT22;760;48.822;9.304;2022-11-15T19:30:48;12.40;99.90
1534;DHT22;760;48.822;9.304;2022-11-15T19:33:13;12.30;99.90
1534;DHT22;760;48.822;9.304;2022-11-15T19:35:39;12.20;99.90
1534;DHT22;760;48.822;9.304;2022-11-15T19:38:04;12.10;99.90
1534;DHT22;760;48.822;9.304;2022-11-15T19:40:32;12.10;99.90
1534;DHT22;760;48.822;9.304;2022-11-15T19:42:57;12.00;99.90
1534;DHT22;760;48.822;9.304;2022-11-15T19:45:23;12.00;99.90
1534;DHT22;760;48.822;9.304;2022-11-15T19:47:48;11.90;99.90
1534;DHT22;760;48.822;9.304;2022-11-15T19:50:15;11.90;99.90
1534;DHT22;760;48.822;9.304;2022-11-15T19:52:40;11.80;99.90
1534;DHT22;760;48.822;9.304;2022-11-15T19:55:06;11.80;99.90
1534;DHT22;760;48.822;9.304;2022-11-15T19:57:34;11.70;99.90
1534;DHT22;760;48.822;9.304;2022-11-15T20:00:03;11.70;99.90
1534;DHT22;760;48.822;9.304;2022-11-15T20:02:30;11.60;99.90
1534;DHT22;760;48.822;9.304;2022-11-15T20:04:56;11.60;99.90
1534;DHT22;760;48.822;9.304;2022-11-15T20:07:21;11.60;99.90
1534;DHT22;760;48.822;9.304;2022-11-15T20:09:47;11.60;99.90
1534;DHT22;760;48.822;9.304;2022-11-15T20:12:12;11.50;99.90
1534;DHT22;760;48.822;9.304;2022-11-15T20:14:38;11.50;99.90
1534;DHT22;760;48.822;9.304;2022-11-15T20:17:04;11.50;99.90
1534;DHT22;760;48.822;9.304;2022-11-15T20:19:30;11.50;99.90
1534;DHT22;760;48.822;9.304;2022-11-15T20:21:56;11.50;99.90
1534;DHT22;760;48.822;9.304;2022-11-15T20:24:22;11.50;99.90
1534;DHT22;760;48.822;9.304;2022-11-15T20:26:47;11.50;99.90
1534;DHT22;760;48.822;9.304;2022-11-15T20:29:13;11.40;99.90
1534;DHT22;760;48.822;9.304;2022-11-15T20:31:38;11.40;99.90
1534;DHT22;760;48.822;9.304;2022-11-15T20:34:04;11.40;99.90
1534;DHT22;760;48.822;9.304;2022-11-15T20:36:30;11.40;99.90
1534;DHT22;760;48.822;9.304;2022-11-15T20:38:58;11.40;99.90
1534;DHT22;760;48.822;9.304;2022-11-15T20:41:25;11.40;99.90
1534;DHT22;760;48.822;9.304;2022-11-15T20:43:51;11.40;99.90
1534;DHT22;760;48.822;9.304;2022-11-15T20:46:17;11.40;99.90
1534;DHT22;760;48.822;9.304;2022-11-15T20:48:44;11.30;99.90
1534;DHT22;760;48.822;9.304;2022-11-15T20:51:14;11.30;99.90
1534;DHT22;760;48.822;9.304;2022-11-15T20:53:41;11.30;99.90
1534;DHT22;760;48.822;9.304;2022-11-15T20:56:10;11.30;99.90
1534;DHT22;760;48.822;9.304;2022-11-15T20:58:36;11.30;99.90
1534;DHT22;760;48.822;9.304;2022-11-15T21:01:03;11.30;99.90
1534;DHT22;760;48.822;9.304;2022-11-15T21:03:29;11.30;99.90
1534;DHT22;760;48.822;9.304;2022-11-15T21:05:55;11.30;99.90
1534;DHT22;760;48.822;9.304;2022-11-15T21:08:21;11.30;99.90
1534;DHT22;760;48.822;9.304;2022-11-15T21:10:49;11.40;99.90
1534;DHT22;760;48.822;9.304;2022-11-15T21:13:35;11.40;99.90
1534;DHT22;760;48.822;9.304;2022-11-15T21:16:01;11.40;99.90
1534;DHT22;760;48.822;9.304;2022-11-15T21:18:28;11.40;99.90
1534;DHT22;760;48.822;9.304;2022-11-15T21:20:53;11.40;99.90
1534;DHT22;760;48.822;9.304;2022-11-15T21:23:19;11.40;99.90
1534;DHT22;760;48.822;9.304;2022-11-15T21:25:52;11.40;99.90
1534;DHT22;760;48.822;9.304;2022-11-15T21:28:19;11.50;99.90
1534;DHT22;760;48.822;9.304;2022-11-15T21:30:57;11.50;99.90
1534;DHT22;760;48.822;9.304;2022-11-15T21:33:24;11.50;99.90
1534;DHT22;760;48.822;9.304;2022-11-15T21:35:52;11.50;99.90
1534;DHT22;760;48.822;9.304;2022-11-15T21:38:19;11.50;99.90
1534;DHT22;760;48.822;9.304;2022-11-15T21:40:44;11.50;99.90
1534;DHT22;760;48.822;9.304;2022-11-15T21:43:10;11.50;99.90
1534;DHT22;760;48.822;9.304;2022-11-15T21:45:36;11.50;99.90
1534;DHT22;760;48.822;9.304;2022-11-15T21:48:01;11.50;99.90
1534;DHT22;760;48.822;9.304;2022-11-15T21:50:27;11.60;99.90
1534;DHT22;760;48.822;9.304;2022-11-15T21:52:52;11.60;99.90
1534;DHT22;760;48.822;9.304;2022-11-15T21:55:18;11.60;99.90
1534;DHT22;760;48.822;9.304;2022-11-15T21:57:43;11.60;99.90
1534;DHT22;760;48.822;9.304;2022-11-15T22:00:09;11.60;99.90
1534;DHT22;760;48.822;9.304;2022-11-15T22:02:53;11.60;99.90
1534;DHT22;760;48.822;9.304;2022-11-15T22:05:19;11.60;99.90
1534;DHT22;760;48.822;9.304;2022-11-15T22:07:45;11.60;99.90
1534;DHT22;760;48.822;9.304;2022-11-15T22:10:10;11.70;99.90
1534;DHT22;760;48.822;9.304;2022-11-15T22:12:36;11.60;99.90
1534;DHT22;760;48.822;9.304;2022-11-15T22:15:01;11.60;99.90
1534;DHT22;760;48.822;9.304;2022-11-15T22:17:27;11.60;99.90
1534;DHT22;760;48.822;9.304;2022-11-15T22:20:13;11.50;99.90
1534;DHT22;760;48.822;9.304;2022-11-15T22:22:39;11.50;99.90
1534;DHT22;760;48.822;9.304;2022-11-15T22:25:05;11.40;99.90
1534;DHT22;760;48.822;9.304;2022-11-15T22:27:31;11.40;99.90
1534;DHT22;760;48.822;9.304;2022-11-15T22:29:56;11.50;99.90
1534;DHT22;760;48.822;9.304;2022-11-15T22:32:22;11.50;99.90
1534;DHT22;760;48.822;9.304;2022-11-15T22:34:47;11.50;99.90
1534;DHT22;760;48.822;9.304;2022-11-15T22:37:13;11.50;99.90
1534;DHT22;760;48.822;9.304;2022-11-15T22:39:39;11.50;99.90
1534;DHT22;760;48.822;9.304;2022-11-15T22:42:06;11.50;99.90
1534;DHT22;760;48.822;9.304;2022-11-15T22:44:31;11.50;99.90
1534;DHT22;760;48.822;9.304;2022-11-15T22:46:57;11.50;99.90
1534;DHT22;760;48.822;9.304;2022-11-15T22:49:23;11.50;99.90
1534;DHT22;760;48.822;9.304;2022-11-15T22:51:48;11.50;99.90
1534;DHT22;760;48.822;9.304;2022-11-15T22:54:14;11.50;99.90
1534;DHT22;760;48.822;9.304;2022-11-15T22:56:39;11.60;99.90
1534;DHT22;760;48.822;9.304;2022-11-15T22:59:05;11.60;99.90
